sensor_id;sensor_type;location;lat;lon;timestamp;P1;durP1;ratioP1;P2;durP2;ratioP2
70908;SDS011;58554;52.006;5.926;2023-02-28T00:00:38;9.93;;;5.17;;
70908;SDS011;58554;52.006;5.926;2023-02-28T00:03:04;12.10;;;5.57;;
70908;SDS011;58554;52.006;5.926;2023-02-28T00:05:31;9.17;;;5.27;;
70908;SDS011;58554;52.006;5.926;2023-02-28T00:07:58;8.47;;;4.97;;
70908;SDS011;58554;52.006;5.926;2023-02-28T00:10:26;10.15;;;4.80;;
70908;SDS011;58554;52.006;5.926;2023-02-28T00:12:58;11.30;;;5.37;;
70908;SDS011;58554;52.006;5.926;2023-02-28T00:15:28;9.10;;;5.03;;
70908;SDS011;58554;52.006;5.926;2023-02-28T00:17:57;11.70;;;6.00;;
70908;SDS011;58554;52.006;5.926;2023-02-28T00:20:24;10.67;;;5.60;;
70908;SDS011;58554;52.006;5.926;2023-02-28T00:22:52;9.98;;;5.30;;
70908;SDS011;58554;52.006;5.926;2023-02-28T00:25:20;11.63;;;5.47;;
70908;SDS011;58554;52.006;5.926;2023-02-28T00:27:50;9.10;;;5.40;;
70908;SDS011;58554;52.006;5.926;2023-02-28T00:30:17;10.45;;;5.53;;
70908;SDS011;58554;52.006;5.926;2023-02-28T00:32:45;9.30;;;5.47;;
70908;SDS011;58554;52.006;5.926;2023-02-28T00:35:15;13.13;;;5.78;;
70908;SDS011;58554;52.006;5.926;2023-02-28T00:37:42;10.13;;;5.53;;
70908;SDS011;58554;52.006;5.926;2023-02-28T00:40:09;8.93;;;5.13;;
70908;SDS011;58554;52.006;5.926;2023-02-28T00:42:36;8.93;;;5.60;;
70908;SDS011;58554;52.006;5.926;2023-02-28T00:45:04;9.87;;;5.23;;
70908;SDS011;58554;52.006;5.926;2023-02-28T00:47:32;10.63;;;5.60;;
70908;SDS011;58554;52.006;5.926;2023-02-28T00:49:58;9.40;;;5.33;;
70908;SDS011;58554;52.006;5.926;2023-02-28T00:52:28;12.07;;;5.03;;
70908;SDS011;58554;52.006;5.926;2023-02-28T00:54:54;8.73;;;5.40;;
70908;SDS011;58554;52.006;5.926;2023-02-28T00:57:21;8.93;;;5.45;;
70908;SDS011;58554;52.006;5.926;2023-02-28T00:59:48;8.43;;;5.57;;
70908;SDS011;58554;52.006;5.926;2023-02-28T01:02:14;11.10;;;5.60;;
70908;SDS011;58554;52.006;5.926;2023-02-28T01:04:41;9.63;;;5.45;;
70908;SDS011;58554;52.006;5.926;2023-02-28T01:07:08;8.60;;;4.90;;
70908;SDS011;58554;52.006;5.926;2023-02-28T01:09:37;10.82;;;5.30;;
70908;SDS011;58554;52.006;5.926;2023-02-28T01:12:04;10.50;;;5.43;;
70908;SDS011;58554;52.006;5.926;2023-02-28T01:14:33;8.67;;;5.03;;
70908;SDS011;58554;52.006;5.926;2023-02-28T01:17:00;8.27;;;5.07;;
70908;SDS011;58554;52.006;5.926;2023-02-28T01:19:27;9.63;;;5.38;;
70908;SDS011;58554;52.006;5.926;2023-02-28T01:21:53;8.73;;;5.00;;
70908;SDS011;58554;52.006;5.926;2023-02-28T01:24:20;9.55;;;5.20;;
70908;SDS011;58554;52.006;5.926;2023-02-28T01:26:49;9.67;;;5.07;;
70908;SDS011;58554;52.006;5.926;2023-02-28T01:29:16;10.38;;;5.35;;
70908;SDS011;58554;52.006;5.926;2023-02-28T01:31:42;10.10;;;5.70;;
70908;SDS011;58554;52.006;5.926;2023-02-28T01:34:09;9.60;;;5.27;;
70908;SDS011;58554;52.006;5.926;2023-02-28T01:36:35;11.82;;;5.75;;
70908;SDS011;58554;52.006;5.926;2023-02-28T01:39:02;9.40;;;5.40;;
70908;SDS011;58554;52.006;5.926;2023-02-28T01:41:30;10.13;;;5.80;;
70908;SDS011;58554;52.006;5.926;2023-02-28T01:44:04;9.73;;;5.90;;
70908;SDS011;58554;52.006;5.926;2023-02-28T01:46:52;10.73;;;5.28;;
70908;SDS011;58554;52.006;5.926;2023-02-28T01:49:19;10.27;;;5.50;;
70908;SDS011;58554;52.006;5.926;2023-02-28T01:51:46;10.37;;;5.67;;
70908;SDS011;58554;52.006;5.926;2023-02-28T01:54:20;16.77;;;6.18;;
70908;SDS011;58554;52.006;5.926;2023-02-28T01:56:53;9.47;;;6.10;;
70908;SDS011;58554;52.006;5.926;2023-02-28T01:59:29;9.80;;;6.10;;
70908;SDS011;58554;52.006;5.926;2023-02-28T02:02:02;8.70;;;5.20;;
70908;SDS011;58554;52.006;5.926;2023-02-28T02:04:32;9.57;;;5.70;;
70908;SDS011;58554;52.006;5.926;2023-02-28T02:07:05;9.95;;;5.53;;
70908;SDS011;58554;52.006;5.926;2023-02-28T02:09:32;9.13;;;5.97;;
70908;SDS011;58554;52.006;5.926;2023-02-28T02:11:58;8.93;;;6.07;;
70908;SDS011;58554;52.006;5.926;2023-02-28T02:14:47;10.43;;;5.27;;
70908;SDS011;58554;52.006;5.926;2023-02-28T02:17:30;10.48;;;5.97;;
70908;SDS011;58554;52.006;5.926;2023-02-28T02:27:11;9.10;;;5.10;;
70908;SDS011;58554;52.006;5.926;2023-02-28T02:33:28;8.30;;;5.45;;
70908;SDS011;58554;52.006;5.926;2023-02-28T02:36:27;9.37;;;5.23;;
70908;SDS011;58554;52.006;5.926;2023-02-28T02:39:02;8.38;;;5.38;;
70908;SDS011;58554;52.006;5.926;2023-02-28T02:41:40;11.30;;;5.87;;
70908;SDS011;58554;52.006;5.926;2023-02-28T02:44:18;10.03;;;5.03;;
70908;SDS011;58554;52.006;5.926;2023-02-28T02:46:53;9.55;;;5.22;;
70908;SDS011;58554;52.006;5.926;2023-02-28T02:49:30;8.37;;;5.17;;
70908;SDS011;58554;52.006;5.926;2023-02-28T02:52:02;9.18;;;5.35;;
70908;SDS011;58554;52.006;5.926;2023-02-28T02:54:34;9.27;;;5.67;;
70908;SDS011;58554;52.006;5.926;2023-02-28T02:57:05;10.65;;;5.70;;
70908;SDS011;58554;52.006;5.926;2023-02-28T02:59:39;9.57;;;5.53;;
70908;SDS011;58554;52.006;5.926;2023-02-28T03:02:08;10.88;;;5.68;;
70908;SDS011;58554;52.006;5.926;2023-02-28T03:04:42;8.63;;;5.30;;
70908;SDS011;58554;52.006;5.926;2023-02-28T03:07:19;8.32;;;5.40;;
70908;SDS011;58554;52.006;5.926;2023-02-28T03:09:50;10.23;;;5.72;;
70908;SDS011;58554;52.006;5.926;2023-02-28T03:12:18;11.80;;;5.70;;
70908;SDS011;58554;52.006;5.926;2023-02-28T03:14:52;11.95;;;5.80;;
70908;SDS011;58554;52.006;5.926;2023-02-28T03:17:37;9.93;;;5.57;;
70908;SDS011;58554;52.006;5.926;2023-02-28T03:20:35;9.32;;;5.50;;
70908;SDS011;58554;52.006;5.926;2023-02-28T03:26:11;8.83;;;5.27;;
70908;SDS011;58554;52.006;5.926;2023-02-28T03:28:46;8.68;;;5.30;;
70908;SDS011;58554;52.006;5.926;2023-02-28T03:31:22;10.07;;;4.93;;
70908;SDS011;58554;52.006;5.926;2023-02-28T03:33:59;9.03;;;5.53;;
70908;SDS011;58554;52.006;5.926;2023-02-28T03:36:36;9.75;;;5.18;;
70908;SDS011;58554;52.006;5.926;2023-02-28T03:39:11;9.30;;;4.97;;
70908;SDS011;58554;52.006;5.926;2023-02-28T03:41:44;8.67;;;5.37;;
70908;SDS011;58554;52.006;5.926;2023-02-28T03:44:23;9.15;;;4.68;;
70908;SDS011;58554;52.006;5.926;2023-02-28T03:46:58;8.23;;;4.93;;
70908;SDS011;58554;52.006;5.926;2023-02-28T03:49:32;8.32;;;4.72;;
70908;SDS011;58554;52.006;5.926;2023-02-28T03:52:07;9.02;;;5.22;;
70908;SDS011;58554;52.006;5.926;2023-02-28T03:54:38;7.50;;;4.97;;
70908;SDS011;58554;52.006;5.926;2023-02-28T03:57:15;7.60;;;4.70;;
70908;SDS011;58554;52.006;5.926;2023-02-28T03:59:54;7.23;;;4.43;;
70908;SDS011;58554;52.006;5.926;2023-02-28T04:02:26;9.17;;;4.33;;
70908;SDS011;58554;52.006;5.926;2023-02-28T04:04:53;7.40;;;4.47;;
70908;SDS011;58554;52.006;5.926;2023-02-28T04:07:20;6.30;;;3.63;;
70908;SDS011;58554;52.006;5.926;2023-02-28T04:09:49;6.93;;;4.05;;
70908;SDS011;58554;52.006;5.926;2023-02-28T04:12:17;6.70;;;3.73;;
70908;SDS011;58554;52.006;5.926;2023-02-28T04:14:43;10.40;;;4.00;;
70908;SDS011;58554;52.006;5.926;2023-02-28T04:17:10;7.18;;;4.22;;
70908;SDS011;58554;52.006;5.926;2023-02-28T04:19:37;7.77;;;4.13;;
70908;SDS011;58554;52.006;5.926;2023-02-28T04:22:03;7.68;;;4.53;;
70908;SDS011;58554;52.006;5.926;2023-02-28T04:24:30;6.30;;;4.10;;
70908;SDS011;58554;52.006;5.926;2023-02-28T04:26:59;7.87;;;4.30;;
70908;SDS011;58554;52.006;5.926;2023-02-28T04:29:27;9.27;;;4.80;;
70908;SDS011;58554;52.006;5.926;2023-02-28T04:31:56;9.47;;;5.17;;
70908;SDS011;58554;52.006;5.926;2023-02-28T04:34:24;6.85;;;4.43;;
70908;SDS011;58554;52.006;5.926;2023-02-28T04:36:51;8.63;;;4.57;;
70908;SDS011;58554;52.006;5.926;2023-02-28T04:39:20;10.55;;;4.80;;
70908;SDS011;58554;52.006;5.926;2023-02-28T04:41:48;7.93;;;4.13;;
70908;SDS011;58554;52.006;5.926;2023-02-28T04:44:18;8.93;;;5.03;;
70908;SDS011;58554;52.006;5.926;2023-02-28T04:46:47;10.57;;;4.45;;
70908;SDS011;58554;52.006;5.926;2023-02-28T04:49:15;7.88;;;4.88;;
70908;SDS011;58554;52.006;5.926;2023-02-28T04:51:41;9.57;;;5.13;;
70908;SDS011;58554;52.006;5.926;2023-02-28T04:54:08;7.85;;;4.68;;
70908;SDS011;58554;52.006;5.926;2023-02-28T04:56:35;8.60;;;4.53;;
70908;SDS011;58554;52.006;5.926;2023-02-28T04:59:01;8.77;;;4.73;;
70908;SDS011;58554;52.006;5.926;2023-02-28T05:01:31;10.10;;;5.05;;
70908;SDS011;58554;52.006;5.926;2023-02-28T05:04:00;6.70;;;4.40;;
70908;SDS011;58554;52.006;5.926;2023-02-28T05:06:29;7.83;;;4.33;;
70908;SDS011;58554;52.006;5.926;2023-02-28T05:08:58;7.75;;;4.43;;
70908;SDS011;58554;52.006;5.926;2023-02-28T05:11:26;6.10;;;4.03;;
70908;SDS011;58554;52.006;5.926;2023-02-28T05:13:55;6.63;;;4.27;;
70908;SDS011;58554;52.006;5.926;2023-02-28T05:16:22;6.03;;;4.10;;
70908;SDS011;58554;52.006;5.926;2023-02-28T05:18:51;7.32;;;4.28;;
70908;SDS011;58554;52.006;5.926;2023-02-28T05:21:23;5.53;;;3.97;;
70908;SDS011;58554;52.006;5.926;2023-02-28T05:23:53;6.88;;;4.40;;
70908;SDS011;58554;52.006;5.926;2023-02-28T05:26:21;6.40;;;4.07;;
70908;SDS011;58554;52.006;5.926;2023-02-28T05:28:48;7.23;;;3.90;;
70908;SDS011;58554;52.006;5.926;2023-02-28T05:31:14;7.45;;;4.20;;
70908;SDS011;58554;52.006;5.926;2023-02-28T05:33:41;7.35;;;4.35;;
70908;SDS011;58554;52.006;5.926;2023-02-28T05:36:10;7.37;;;4.47;;
70908;SDS011;58554;52.006;5.926;2023-02-28T05:38:37;6.35;;;4.03;;
70908;SDS011;58554;52.006;5.926;2023-02-28T05:41:07;7.88;;;4.53;;
70908;SDS011;58554;52.006;5.926;2023-02-28T05:43:34;8.03;;;4.30;;
70908;SDS011;58554;52.006;5.926;2023-02-28T05:46:03;8.85;;;4.43;;
70908;SDS011;58554;52.006;5.926;2023-02-28T05:48:32;7.27;;;4.27;;
70908;SDS011;58554;52.006;5.926;2023-02-28T05:51:00;6.10;;;3.72;;
70908;SDS011;58554;52.006;5.926;2023-02-28T05:53:30;7.23;;;4.23;;
70908;SDS011;58554;52.006;5.926;2023-02-28T05:55:58;6.40;;;3.63;;
70908;SDS011;58554;52.006;5.926;2023-02-28T05:58:25;5.97;;;4.13;;
70908;SDS011;58554;52.006;5.926;2023-02-28T06:00:52;7.03;;;4.03;;
70908;SDS011;58554;52.006;5.926;2023-02-28T06:03:19;7.70;;;4.03;;
70908;SDS011;58554;52.006;5.926;2023-02-28T06:05:46;7.77;;;3.87;;
70908;SDS011;58554;52.006;5.926;2023-02-28T06:08:12;7.70;;;4.05;;
70908;SDS011;58554;52.006;5.926;2023-02-28T06:10:41;6.90;;;4.20;;
70908;SDS011;58554;52.006;5.926;2023-02-28T06:13:08;6.73;;;3.80;;
70908;SDS011;58554;52.006;5.926;2023-02-28T06:15:34;6.43;;;3.70;;
70908;SDS011;58554;52.006;5.926;2023-02-28T06:18:01;5.83;;;3.90;;
70908;SDS011;58554;52.006;5.926;2023-02-28T06:20:28;6.40;;;3.53;;
70908;SDS011;58554;52.006;5.926;2023-02-28T06:22:55;5.65;;;3.63;;
70908;SDS011;58554;52.006;5.926;2023-02-28T06:25:22;6.03;;;3.53;;
70908;SDS011;58554;52.006;5.926;2023-02-28T06:27:51;6.85;;;4.10;;
70908;SDS011;58554;52.006;5.926;2023-02-28T06:30:18;5.83;;;3.47;;
70908;SDS011;58554;52.006;5.926;2023-02-28T06:32:46;7.90;;;3.50;;
70908;SDS011;58554;52.006;5.926;2023-02-28T06:35:12;5.22;;;3.17;;
70908;SDS011;58554;52.006;5.926;2023-02-28T06:37:39;7.57;;;4.40;;
70908;SDS011;58554;52.006;5.926;2023-02-28T06:40:06;5.37;;;3.50;;
70908;SDS011;58554;52.006;5.926;2023-02-28T06:42:35;4.93;;;2.93;;
70908;SDS011;58554;52.006;5.926;2023-02-28T06:45:05;4.40;;;3.08;;
70908;SDS011;58554;52.006;5.926;2023-02-28T06:47:33;7.03;;;3.00;;
70908;SDS011;58554;52.006;5.926;2023-02-28T06:49:59;4.65;;;3.17;;
70908;SDS011;58554;52.006;5.926;2023-02-28T06:52:26;4.77;;;3.10;;
70908;SDS011;58554;52.006;5.926;2023-02-28T06:54:52;8.02;;;3.10;;
70908;SDS011;58554;52.006;5.926;2023-02-28T06:57:19;5.63;;;3.30;;
70908;SDS011;58554;52.006;5.926;2023-02-28T06:59:45;6.10;;;4.33;;
70908;SDS011;58554;52.006;5.926;2023-02-28T07:02:14;5.25;;;3.38;;
70908;SDS011;58554;52.006;5.926;2023-02-28T07:04:41;6.17;;;3.20;;
70908;SDS011;58554;52.006;5.926;2023-02-28T07:07:07;5.68;;;3.13;;
70908;SDS011;58554;52.006;5.926;2023-02-28T07:09:34;4.53;;;3.10;;
70908;SDS011;58554;52.006;5.926;2023-02-28T07:12:01;6.00;;;3.37;;
70908;SDS011;58554;52.006;5.926;2023-02-28T07:14:27;7.72;;;3.67;;
70908;SDS011;58554;52.006;5.926;2023-02-28T07:16:54;5.77;;;3.33;;
70908;SDS011;58554;52.006;5.926;2023-02-28T07:19:23;7.55;;;3.70;;
70908;SDS011;58554;52.006;5.926;2023-02-28T07:21:49;6.87;;;3.90;;
70908;SDS011;58554;52.006;5.926;2023-02-28T07:24:16;6.80;;;3.50;;
70908;SDS011;58554;52.006;5.926;2023-02-28T07:26:42;5.73;;;3.70;;
70908;SDS011;58554;52.006;5.926;2023-02-28T07:29:09;6.13;;;3.60;;
70908;SDS011;58554;52.006;5.926;2023-02-28T07:31:36;7.03;;;4.10;;
70908;SDS011;58554;52.006;5.926;2023-02-28T07:34:02;7.20;;;3.67;;
70908;SDS011;58554;52.006;5.926;2023-02-28T07:36:31;7.57;;;3.75;;
70908;SDS011;58554;52.006;5.926;2023-02-28T07:38:58;6.50;;;3.90;;
70908;SDS011;58554;52.006;5.926;2023-02-28T07:41:24;7.18;;;3.92;;
70908;SDS011;58554;52.006;5.926;2023-02-28T07:43:53;6.33;;;3.97;;
70908;SDS011;58554;52.006;5.926;2023-02-28T07:46:20;6.60;;;4.00;;
70908;SDS011;58554;52.006;5.926;2023-02-28T07:48:46;7.20;;;4.50;;
70908;SDS011;58554;52.006;5.926;2023-02-28T07:51:13;6.23;;;4.30;;
70908;SDS011;58554;52.006;5.926;2023-02-28T07:53:42;6.88;;;4.65;;
70908;SDS011;58554;52.006;5.926;2023-02-28T07:56:09;7.57;;;4.77;;
70908;SDS011;58554;52.006;5.926;2023-02-28T07:58:35;8.00;;;5.05;;
70908;SDS011;58554;52.006;5.926;2023-02-28T08:01:05;8.13;;;5.18;;
70908;SDS011;58554;52.006;5.926;2023-02-28T08:03:33;7.63;;;4.60;;
70908;SDS011;58554;52.006;5.926;2023-02-28T08:05:59;7.63;;;4.50;;
70908;SDS011;58554;52.006;5.926;2023-02-28T08:08:26;7.77;;;4.53;;
70908;SDS011;58554;52.006;5.926;2023-02-28T08:10:55;7.30;;;5.20;;
70908;SDS011;58554;52.006;5.926;2023-02-28T08:13:24;8.70;;;4.13;;
70908;SDS011;58554;52.006;5.926;2023-02-28T08:15:50;11.37;;;4.10;;
70908;SDS011;58554;52.006;5.926;2023-02-28T08:18:17;7.00;;;4.20;;
70908;SDS011;58554;52.006;5.926;2023-02-28T08:20:43;4.95;;;3.67;;
70908;SDS011;58554;52.006;5.926;2023-02-28T08:23:10;6.30;;;3.80;;
70908;SDS011;58554;52.006;5.926;2023-02-28T08:25:36;4.63;;;3.07;;
70908;SDS011;58554;52.006;5.926;2023-02-28T08:28:05;4.07;;;3.37;;
70908;SDS011;58554;52.006;5.926;2023-02-28T08:30:32;4.60;;;3.37;;
70908;SDS011;58554;52.006;5.926;2023-02-28T08:32:58;5.78;;;3.47;;
70908;SDS011;58554;52.006;5.926;2023-02-28T08:35:25;4.80;;;3.30;;
70908;SDS011;58554;52.006;5.926;2023-02-28T08:37:51;5.17;;;3.37;;
70908;SDS011;58554;52.006;5.926;2023-02-28T08:40:18;5.07;;;3.45;;
70908;SDS011;58554;52.006;5.926;2023-02-28T08:42:45;6.23;;;3.33;;
70908;SDS011;58554;52.006;5.926;2023-02-28T08:45:15;4.07;;;3.30;;
70908;SDS011;58554;52.006;5.926;2023-02-28T08:47:41;4.30;;;3.25;;
70908;SDS011;58554;52.006;5.926;2023-02-28T08:50:10;5.00;;;3.80;;
70908;SDS011;58554;52.006;5.926;2023-02-28T08:52:36;4.77;;;3.50;;
70908;SDS011;58554;52.006;5.926;2023-02-28T08:55:03;4.53;;;3.80;;
70908;SDS011;58554;52.006;5.926;2023-02-28T08:57:30;4.22;;;3.40;;
70908;SDS011;58554;52.006;5.926;2023-02-28T08:59:57;4.73;;;3.80;;
70908;SDS011;58554;52.006;5.926;2023-02-28T09:02:27;5.40;;;3.90;;
70908;SDS011;58554;52.006;5.926;2023-02-28T09:04:53;4.63;;;3.63;;
70908;SDS011;58554;52.006;5.926;2023-02-28T09:07:20;4.82;;;4.00;;
70908;SDS011;58554;52.006;5.926;2023-02-28T09:09:46;4.70;;;3.40;;
70908;SDS011;58554;52.006;5.926;2023-02-28T09:12:13;5.03;;;3.80;;
70908;SDS011;58554;52.006;5.926;2023-02-28T09:14:39;6.20;;;4.18;;
70908;SDS011;58554;52.006;5.926;2023-02-28T09:17:06;5.25;;;3.58;;
70908;SDS011;58554;52.006;5.926;2023-02-28T09:19:35;8.80;;;3.43;;
70908;SDS011;58554;52.006;5.926;2023-02-28T09:22:01;5.17;;;3.47;;
70908;SDS011;58554;52.006;5.926;2023-02-28T09:24:28;3.78;;;3.22;;
70908;SDS011;58554;52.006;5.926;2023-02-28T09:26:54;3.88;;;3.10;;
70908;SDS011;58554;52.006;5.926;2023-02-28T09:29:21;4.10;;;2.90;;
70908;SDS011;58554;52.006;5.926;2023-02-28T09:31:47;3.70;;;3.00;;
70908;SDS011;58554;52.006;5.926;2023-02-28T09:34:14;4.00;;;3.28;;
70908;SDS011;58554;52.006;5.926;2023-02-28T09:36:43;4.43;;;3.00;;
70908;SDS011;58554;52.006;5.926;2023-02-28T09:39:10;3.90;;;3.10;;
70908;SDS011;58554;52.006;5.926;2023-02-28T09:41:37;3.73;;;3.13;;
70908;SDS011;58554;52.006;5.926;2023-02-28T09:44:07;4.07;;;3.07;;
70908;SDS011;58554;52.006;5.926;2023-02-28T09:46:47;4.40;;;3.30;;
70908;SDS011;58554;52.006;5.926;2023-02-28T09:49:22;3.90;;;3.05;;
70908;SDS011;58554;52.006;5.926;2023-02-28T09:51:59;3.80;;;2.90;;
70908;SDS011;58554;52.006;5.926;2023-02-28T09:54:30;4.10;;;3.23;;
70908;SDS011;58554;52.006;5.926;2023-02-28T09:56:59;4.47;;;2.80;;
70908;SDS011;58554;52.006;5.926;2023-02-28T09:59:36;4.30;;;3.40;;
70908;SDS011;58554;52.006;5.926;2023-02-28T10:02:32;4.10;;;3.10;;
70908;SDS011;58554;52.006;5.926;2023-02-28T10:05:15;3.80;;;3.10;;
70908;SDS011;58554;52.006;5.926;2023-02-28T10:07:52;4.30;;;3.25;;
70908;SDS011;58554;52.006;5.926;2023-02-28T10:10:33;4.95;;;3.63;;
70908;SDS011;58554;52.006;5.926;2023-02-28T10:13:13;4.23;;;3.20;;
70908;SDS011;58554;52.006;5.926;2023-02-28T10:15:49;6.37;;;3.50;;
70908;SDS011;58554;52.006;5.926;2023-02-28T10:18:24;3.75;;;3.30;;
70908;SDS011;58554;52.006;5.926;2023-02-28T10:21:04;3.85;;;3.15;;
70908;SDS011;58554;52.006;5.926;2023-02-28T10:23:34;4.30;;;3.23;;
70908;SDS011;58554;52.006;5.926;2023-02-28T10:26:08;4.63;;;3.13;;
70908;SDS011;58554;52.006;5.926;2023-02-28T10:28:39;4.30;;;3.35;;
70908;SDS011;58554;52.006;5.926;2023-02-28T10:31:08;4.90;;;3.20;;
70908;SDS011;58554;52.006;5.926;2023-02-28T10:33:43;4.05;;;3.30;;
70908;SDS011;58554;52.006;5.926;2023-02-28T10:36:12;5.50;;;3.27;;
70908;SDS011;58554;52.006;5.926;2023-02-28T10:38:45;3.63;;;2.73;;
70908;SDS011;58554;52.006;5.926;2023-02-28T10:41:14;4.00;;;3.13;;
70908;SDS011;58554;52.006;5.926;2023-02-28T10:43:43;3.40;;;2.83;;
70908;SDS011;58554;52.006;5.926;2023-02-28T10:46:11;3.07;;;2.67;;
70908;SDS011;58554;52.006;5.926;2023-02-28T10:48:43;4.17;;;2.80;;
70908;SDS011;58554;52.006;5.926;2023-02-28T10:51:16;3.15;;;2.60;;
70908;SDS011;58554;52.006;5.926;2023-02-28T10:53:48;3.70;;;3.03;;
70908;SDS011;58554;52.006;5.926;2023-02-28T10:56:17;3.67;;;2.80;;
70908;SDS011;58554;52.006;5.926;2023-02-28T10:58:50;3.78;;;2.70;;
70908;SDS011;58554;52.006;5.926;2023-02-28T11:01:21;3.35;;;3.00;;
70908;SDS011;58554;52.006;5.926;2023-02-28T11:03:50;4.03;;;2.83;;
70908;SDS011;58554;52.006;5.926;2023-02-28T11:06:19;3.90;;;2.60;;
70908;SDS011;58554;52.006;5.926;2023-02-28T11:08:52;4.00;;;3.00;;
70908;SDS011;58554;52.006;5.926;2023-02-28T11:11:22;3.40;;;2.75;;
70908;SDS011;58554;52.006;5.926;2023-02-28T11:13:54;4.00;;;2.78;;
70908;SDS011;58554;52.006;5.926;2023-02-28T11:16:32;5.03;;;3.33;;
70908;SDS011;58554;52.006;5.926;2023-02-28T11:19:02;3.57;;;2.90;;
70908;SDS011;58554;52.006;5.926;2023-02-28T11:21:52;3.78;;;3.05;;
70908;SDS011;58554;52.006;5.926;2023-02-28T11:24:26;4.00;;;3.23;;
70908;SDS011;58554;52.006;5.926;2023-02-28T11:26:59;5.13;;;3.37;;
70908;SDS011;58554;52.006;5.926;2023-02-28T11:29:26;3.70;;;2.90;;
70908;SDS011;58554;52.006;5.926;2023-02-28T11:34:41;3.85;;;2.97;;
70908;SDS011;58554;52.006;5.926;2023-02-28T11:37:11;4.63;;;2.90;;
70908;SDS011;58554;52.006;5.926;2023-02-28T11:39:43;4.27;;;2.90;;
70908;SDS011;58554;52.006;5.926;2023-02-28T11:42:16;3.50;;;3.08;;
70908;SDS011;58554;52.006;5.926;2023-02-28T11:45:19;3.72;;;3.20;;
70908;SDS011;58554;52.006;5.926;2023-02-28T11:48:04;4.97;;;3.60;;
70908;SDS011;58554;52.006;5.926;2023-02-28T11:50:46;5.00;;;3.47;;
70908;SDS011;58554;52.006;5.926;2023-02-28T11:53:37;4.72;;;3.70;;
70908;SDS011;58554;52.006;5.926;2023-02-28T11:56:25;4.15;;;3.50;;
70908;SDS011;58554;52.006;5.926;2023-02-28T11:59:02;3.87;;;3.17;;
70908;SDS011;58554;52.006;5.926;2023-02-28T12:04:52;4.05;;;3.13;;
70908;SDS011;58554;52.006;5.926;2023-02-28T12:07:36;6.53;;;3.60;;
70908;SDS011;58554;52.006;5.926;2023-02-28T12:10:18;4.87;;;3.30;;
70908;SDS011;58554;52.006;5.926;2023-02-28T12:12:54;5.22;;;3.50;;
70908;SDS011;58554;52.006;5.926;2023-02-28T12:15:53;9.68;;;3.90;;
70908;SDS011;58554;52.006;5.926;2023-02-28T12:19:01;4.32;;;3.38;;
70908;SDS011;58554;52.006;5.926;2023-02-28T12:21:45;6.27;;;3.93;;
70908;SDS011;58554;52.006;5.926;2023-02-28T12:24:37;4.32;;;3.72;;
70908;SDS011;58554;52.006;5.926;2023-02-28T12:27:27;4.50;;;3.90;;
70908;SDS011;58554;52.006;5.926;2023-02-28T12:30:05;4.50;;;3.87;;
70908;SDS011;58554;52.006;5.926;2023-02-28T12:32:42;5.10;;;3.80;;
70908;SDS011;58554;52.006;5.926;2023-02-28T12:35:15;4.20;;;3.78;;
70908;SDS011;58554;52.006;5.926;2023-02-28T12:37:50;4.20;;;3.53;;
70908;SDS011;58554;52.006;5.926;2023-02-28T12:40:25;5.20;;;4.07;;
70908;SDS011;58554;52.006;5.926;2023-02-28T12:43:08;4.93;;;4.10;;
70908;SDS011;58554;52.006;5.926;2023-02-28T12:45:44;4.30;;;3.60;;
70908;SDS011;58554;52.006;5.926;2023-02-28T12:48:19;4.78;;;3.80;;
70908;SDS011;58554;52.006;5.926;2023-02-28T12:50:53;4.35;;;3.80;;
70908;SDS011;58554;52.006;5.926;2023-02-28T12:53:23;4.50;;;3.90;;
70908;SDS011;58554;52.006;5.926;2023-02-28T12:56:04;4.80;;;3.50;;
70908;SDS011;58554;52.006;5.926;2023-02-28T12:58:45;4.22;;;3.40;;
70908;SDS011;58554;52.006;5.926;2023-02-28T13:01:29;4.20;;;3.53;;
70908;SDS011;58554;52.006;5.926;2023-02-28T13:04:34;4.20;;;3.50;;
70908;SDS011;58554;52.006;5.926;2023-02-28T13:10:37;4.05;;;3.47;;
70908;SDS011;58554;52.006;5.926;2023-02-28T13:13:13;4.10;;;3.60;;
70908;SDS011;58554;52.006;5.926;2023-02-28T13:18:33;5.30;;;3.78;;
70908;SDS011;58554;52.006;5.926;2023-02-28T13:21:04;3.78;;;3.38;;
70908;SDS011;58554;52.006;5.926;2023-02-28T13:29:55;4.28;;;3.70;;
70908;SDS011;58554;52.006;5.926;2023-02-28T13:32:30;3.95;;;3.55;;
70908;SDS011;58554;52.006;5.926;2023-02-28T13:38:23;4.73;;;3.50;;
70908;SDS011;58554;52.006;5.926;2023-02-28T13:44:13;4.40;;;3.63;;
70908;SDS011;58554;52.006;5.926;2023-02-28T13:49:50;4.57;;;4.00;;
70908;SDS011;58554;52.006;5.926;2023-02-28T13:52:21;5.60;;;3.90;;
70908;SDS011;58554;52.006;5.926;2023-02-28T13:54:58;4.90;;;4.20;;
70908;SDS011;58554;52.006;5.926;2023-02-28T13:57:57;5.18;;;4.68;;
70908;SDS011;58554;52.006;5.926;2023-02-28T14:01:07;4.63;;;4.13;;
70908;SDS011;58554;52.006;5.926;2023-02-28T14:04:09;5.45;;;3.92;;
70908;SDS011;58554;52.006;5.926;2023-02-28T14:07:05;5.07;;;4.17;;
70908;SDS011;58554;52.006;5.926;2023-02-28T14:09:40;5.22;;;4.40;;
70908;SDS011;58554;52.006;5.926;2023-02-28T14:15:30;6.13;;;4.00;;
70908;SDS011;58554;52.006;5.926;2023-02-28T14:18:16;4.77;;;3.70;;
70908;SDS011;58554;52.006;5.926;2023-02-28T14:20:49;5.20;;;4.10;;
70908;SDS011;58554;52.006;5.926;2023-02-28T14:23:32;4.72;;;3.78;;
70908;SDS011;58554;52.006;5.926;2023-02-28T14:26:32;5.22;;;4.25;;
70908;SDS011;58554;52.006;5.926;2023-02-28T14:29:45;5.07;;;3.83;;
70908;SDS011;58554;52.006;5.926;2023-02-28T14:32:41;5.80;;;3.97;;
70908;SDS011;58554;52.006;5.926;2023-02-28T14:35:28;4.30;;;3.75;;
70908;SDS011;58554;52.006;5.926;2023-02-28T14:38:19;5.10;;;3.53;;
70908;SDS011;58554;52.006;5.926;2023-02-28T14:40:54;4.90;;;3.80;;
70908;SDS011;58554;52.006;5.926;2023-02-28T14:43:30;4.67;;;3.83;;
70908;SDS011;58554;52.006;5.926;2023-02-28T14:45:58;4.70;;;3.58;;
70908;SDS011;58554;52.006;5.926;2023-02-28T14:48:29;6.28;;;4.03;;
70908;SDS011;58554;52.006;5.926;2023-02-28T14:50:57;5.13;;;4.00;;
70908;SDS011;58554;52.006;5.926;2023-02-28T14:53:27;5.30;;;3.73;;
70908;SDS011;58554;52.006;5.926;2023-02-28T14:56:01;5.00;;;3.58;;
70908;SDS011;58554;52.006;5.926;2023-02-28T14:58:31;5.05;;;3.80;;
70908;SDS011;58554;52.006;5.926;2023-02-28T15:01:00;4.00;;;3.30;;
70908;SDS011;58554;52.006;5.926;2023-02-28T15:03:30;4.53;;;3.50;;
70908;SDS011;58554;52.006;5.926;2023-02-28T15:05:59;4.55;;;3.50;;
70908;SDS011;58554;52.006;5.926;2023-02-28T15:08:29;4.25;;;3.58;;
70908;SDS011;58554;52.006;5.926;2023-02-28T15:10:57;4.30;;;3.60;;
70908;SDS011;58554;52.006;5.926;2023-02-28T15:13:34;4.90;;;3.50;;
70908;SDS011;58554;52.006;5.926;2023-02-28T15:16:08;5.18;;;3.50;;
70908;SDS011;58554;52.006;5.926;2023-02-28T15:18:43;5.10;;;4.00;;
70908;SDS011;58554;52.006;5.926;2023-02-28T15:21:16;4.23;;;3.13;;
70908;SDS011;58554;52.006;5.926;2023-02-28T15:23:49;5.80;;;3.33;;
70908;SDS011;58554;52.006;5.926;2023-02-28T15:26:22;4.73;;;3.63;;
70908;SDS011;58554;52.006;5.926;2023-02-28T15:28:57;5.20;;;3.50;;
70908;SDS011;58554;52.006;5.926;2023-02-28T15:31:27;4.18;;;3.25;;
70908;SDS011;58554;52.006;5.926;2023-02-28T15:34:02;5.93;;;3.53;;
70908;SDS011;58554;52.006;5.926;2023-02-28T15:36:32;4.73;;;3.67;;
70908;SDS011;58554;52.006;5.926;2023-02-28T15:39:00;4.68;;;3.47;;
70908;SDS011;58554;52.006;5.926;2023-02-28T15:41:28;7.23;;;3.50;;
70908;SDS011;58554;52.006;5.926;2023-02-28T15:44:23;4.50;;;3.40;;
70908;SDS011;58554;52.006;5.926;2023-02-28T15:46:54;5.03;;;3.47;;
70908;SDS011;58554;52.006;5.926;2023-02-28T15:49:28;5.13;;;3.45;;
70908;SDS011;58554;52.006;5.926;2023-02-28T15:52:02;4.63;;;3.50;;
70908;SDS011;58554;52.006;5.926;2023-02-28T15:54:29;5.23;;;3.43;;
70908;SDS011;58554;52.006;5.926;2023-02-28T15:57:01;5.45;;;3.60;;
70908;SDS011;58554;52.006;5.926;2023-02-28T15:59:35;5.63;;;3.90;;